In Rescue
 
Open Full Screen Window  High Contrast Mode
Wind Gusting 00 knots
04
April 18, 2024 11:01 PM EDT
Weather Information
Wind Direction
  140 °
Wind Speed
  04 kt (5 mph)
Wind Gust
  00 kt (0 mph)
Altimeter
29.93 in
Visibility
10 SM
Temperature
20° C
68° F
Dewpoint
09° C
48° F
Humidity
49%
Sky Condition
Clear
VFR

METAR KI69 190301Z AUTO 14004KT 10SM CLR 20/09 A2993 RMK AO1 T02020091

FAA Disclaimer: The data displayed is for advisory purposes only and is not to be used for flight planning or operations.